sensor_id;sensor_type;location;lat;lon;timestamp;P1;durP1;ratioP1;P2;durP2;ratioP2
62861;SDS011;48953;53.110;5.592;2023-01-20T00:02:14;6.85;;;3.38;;
62861;SDS011;48953;53.110;5.592;2023-01-20T00:04:40;5.93;;;3.78;;
62861;SDS011;48953;53.110;5.592;2023-01-20T00:07:06;5.13;;;3.00;;
62861;SDS011;48953;53.110;5.592;2023-01-20T00:09:32;6.05;;;3.33;;
62861;SDS011;48953;53.110;5.592;2023-01-20T00:11:58;5.63;;;3.17;;
62861;SDS011;48953;53.110;5.592;2023-01-20T00:14:24;5.45;;;3.13;;
62861;SDS011;48953;53.110;5.592;2023-01-20T00:16:51;5.07;;;2.50;;
62861;SDS011;48953;53.110;5.592;2023-01-20T00:19:17;5.10;;;2.95;;
62861;SDS011;48953;53.110;5.592;2023-01-20T00:21:43;4.55;;;2.83;;
62861;SDS011;48953;53.110;5.592;2023-01-20T00:24:09;7.57;;;2.78;;
62861;SDS011;48953;53.110;5.592;2023-01-20T00:26:35;4.13;;;2.65;;
62861;SDS011;48953;53.110;5.592;2023-01-20T00:29:01;5.15;;;2.42;;
62861;SDS011;48953;53.110;5.592;2023-01-20T00:31:28;6.30;;;2.42;;
62861;SDS011;48953;53.110;5.592;2023-01-20T00:33:56;7.03;;;2.83;;
62861;SDS011;48953;53.110;5.592;2023-01-20T00:36:23;4.57;;;2.40;;
62861;SDS011;48953;53.110;5.592;2023-01-20T00:38:49;3.58;;;2.30;;
62861;SDS011;48953;53.110;5.592;2023-01-20T00:41:16;5.10;;;2.22;;
62861;SDS011;48953;53.110;5.592;2023-01-20T00:43:42;4.43;;;1.92;;
62861;SDS011;48953;53.110;5.592;2023-01-20T00:46:09;4.72;;;2.67;;
62861;SDS011;48953;53.110;5.592;2023-01-20T00:48:35;2.83;;;1.95;;
62861;SDS011;48953;53.110;5.592;2023-01-20T00:51:01;3.08;;;2.05;;
62861;SDS011;48953;53.110;5.592;2023-01-20T00:53:28;3.03;;;2.08;;
62861;SDS011;48953;53.110;5.592;2023-01-20T00:55:54;6.18;;;2.00;;
62861;SDS011;48953;53.110;5.592;2023-01-20T00:58:20;2.42;;;1.63;;
62861;SDS011;48953;53.110;5.592;2023-01-20T01:00:47;3.42;;;2.20;;
62861;SDS011;48953;53.110;5.592;2023-01-20T01:03:13;2.38;;;1.75;;
62861;SDS011;48953;53.110;5.592;2023-01-20T01:05:39;2.85;;;1.80;;
62861;SDS011;48953;53.110;5.592;2023-01-20T01:08:05;2.58;;;1.80;;
62861;SDS011;48953;53.110;5.592;2023-01-20T01:10:31;4.13;;;1.90;;
62861;SDS011;48953;53.110;5.592;2023-01-20T01:12:58;3.13;;;1.48;;
62861;SDS011;48953;53.110;5.592;2023-01-20T01:15:24;3.47;;;1.60;;
62861;SDS011;48953;53.110;5.592;2023-01-20T01:17:50;4.35;;;1.75;;
62861;SDS011;48953;53.110;5.592;2023-01-20T01:20:16;4.88;;;1.70;;
62861;SDS011;48953;53.110;5.592;2023-01-20T01:22:42;5.18;;;1.60;;
62861;SDS011;48953;53.110;5.592;2023-01-20T01:25:08;5.03;;;1.65;;
62861;SDS011;48953;53.110;5.592;2023-01-20T01:27:35;4.22;;;1.60;;
62861;SDS011;48953;53.110;5.592;2023-01-20T01:30:01;2.20;;;1.77;;
62861;SDS011;48953;53.110;5.592;2023-01-20T01:32:27;3.45;;;2.08;;
62861;SDS011;48953;53.110;5.592;2023-01-20T01:34:53;4.25;;;2.25;;
62861;SDS011;48953;53.110;5.592;2023-01-20T01:37:19;4.15;;;2.05;;
62861;SDS011;48953;53.110;5.592;2023-01-20T01:39:45;5.22;;;2.33;;
62861;SDS011;48953;53.110;5.592;2023-01-20T01:42:11;2.92;;;2.10;;
62861;SDS011;48953;53.110;5.592;2023-01-20T01:44:38;2.40;;;2.08;;
62861;SDS011;48953;53.110;5.592;2023-01-20T01:47:23;2.90;;;1.90;;
62861;SDS011;48953;53.110;5.592;2023-01-20T01:49:49;4.68;;;2.40;;
62861;SDS011;48953;53.110;5.592;2023-01-20T01:52:16;5.25;;;2.25;;
62861;SDS011;48953;53.110;5.592;2023-01-20T01:54:44;5.47;;;2.42;;
62861;SDS011;48953;53.110;5.592;2023-01-20T01:57:13;5.07;;;2.78;;
62861;SDS011;48953;53.110;5.592;2023-01-20T01:59:39;5.28;;;2.28;;
62861;SDS011;48953;53.110;5.592;2023-01-20T02:02:05;3.42;;;2.42;;
62861;SDS011;48953;53.110;5.592;2023-01-20T02:04:31;3.05;;;2.20;;
62861;SDS011;48953;53.110;5.592;2023-01-20T02:07:01;6.80;;;2.40;;
62861;SDS011;48953;53.110;5.592;2023-01-20T02:09:28;5.55;;;2.35;;
62861;SDS011;48953;53.110;5.592;2023-01-20T02:11:55;4.38;;;2.65;;
62861;SDS011;48953;53.110;5.592;2023-01-20T02:14:23;6.13;;;2.33;;
62861;SDS011;48953;53.110;5.592;2023-01-20T02:17:13;3.30;;;2.17;;
62861;SDS011;48953;53.110;5.592;2023-01-20T02:34:56;6.82;;;2.67;;
62861;SDS011;48953;53.110;5.592;2023-01-20T02:37:26;6.47;;;3.20;;
62861;SDS011;48953;53.110;5.592;2023-01-20T02:42:31;6.03;;;3.33;;
62861;SDS011;48953;53.110;5.592;2023-01-20T02:45:05;6.43;;;3.63;;
62861;SDS011;48953;53.110;5.592;2023-01-20T02:47:56;9.68;;;3.80;;
62861;SDS011;48953;53.110;5.592;2023-01-20T02:52:53;6.35;;;3.88;;
62861;SDS011;48953;53.110;5.592;2023-01-20T02:55:33;7.35;;;4.22;;
62861;SDS011;48953;53.110;5.592;2023-01-20T02:58:01;6.40;;;3.80;;
62861;SDS011;48953;53.110;5.592;2023-01-20T03:00:36;8.20;;;4.53;;
62861;SDS011;48953;53.110;5.592;2023-01-20T03:03:05;6.90;;;4.53;;
62861;SDS011;48953;53.110;5.592;2023-01-20T03:05:34;7.40;;;4.82;;
62861;SDS011;48953;53.110;5.592;2023-01-20T03:08:03;7.80;;;4.18;;
62861;SDS011;48953;53.110;5.592;2023-01-20T03:10:31;7.35;;;4.65;;
62861;SDS011;48953;53.110;5.592;2023-01-20T03:13:04;8.32;;;4.68;;
62861;SDS011;48953;53.110;5.592;2023-01-20T03:15:36;8.02;;;5.05;;
62861;SDS011;48953;53.110;5.592;2023-01-20T03:18:06;9.48;;;5.00;;
62861;SDS011;48953;53.110;5.592;2023-01-20T03:23:17;9.07;;;5.03;;
62861;SDS011;48953;53.110;5.592;2023-01-20T03:25:43;9.27;;;5.15;;
62861;SDS011;48953;53.110;5.592;2023-01-20T03:28:10;8.65;;;5.00;;
62861;SDS011;48953;53.110;5.592;2023-01-20T03:30:36;9.48;;;5.60;;
62861;SDS011;48953;53.110;5.592;2023-01-20T03:33:02;9.55;;;5.82;;
62861;SDS011;48953;53.110;5.592;2023-01-20T03:35:28;10.90;;;5.35;;
62861;SDS011;48953;53.110;5.592;2023-01-20T03:37:55;9.43;;;5.30;;
62861;SDS011;48953;53.110;5.592;2023-01-20T03:40:22;11.32;;;6.00;;
62861;SDS011;48953;53.110;5.592;2023-01-20T03:48:30;12.25;;;6.18;;
62861;SDS011;48953;53.110;5.592;2023-01-20T03:50:59;10.10;;;6.18;;
62861;SDS011;48953;53.110;5.592;2023-01-20T03:53:30;10.23;;;5.88;;
62861;SDS011;48953;53.110;5.592;2023-01-20T03:56:02;12.07;;;6.32;;
62861;SDS011;48953;53.110;5.592;2023-01-20T03:58:35;10.63;;;6.55;;
62861;SDS011;48953;53.110;5.592;2023-01-20T04:01:05;11.70;;;6.78;;
62861;SDS011;48953;53.110;5.592;2023-01-20T04:03:32;13.70;;;7.28;;
62861;SDS011;48953;53.110;5.592;2023-01-20T04:06:00;12.73;;;6.65;;
62861;SDS011;48953;53.110;5.592;2023-01-20T04:08:29;12.27;;;7.05;;
62861;SDS011;48953;53.110;5.592;2023-01-20T04:10:56;13.98;;;6.50;;
62861;SDS011;48953;53.110;5.592;2023-01-20T04:13:24;12.77;;;7.10;;
62861;SDS011;48953;53.110;5.592;2023-01-20T04:15:50;10.73;;;6.72;;
62861;SDS011;48953;53.110;5.592;2023-01-20T04:18:17;13.35;;;7.03;;
62861;SDS011;48953;53.110;5.592;2023-01-20T04:20:43;13.30;;;7.07;;
62861;SDS011;48953;53.110;5.592;2023-01-20T04:23:13;13.18;;;6.97;;
62861;SDS011;48953;53.110;5.592;2023-01-20T04:25:40;12.95;;;6.53;;
62861;SDS011;48953;53.110;5.592;2023-01-20T04:28:07;13.30;;;6.70;;
62861;SDS011;48953;53.110;5.592;2023-01-20T04:30:33;12.43;;;6.97;;
62861;SDS011;48953;53.110;5.592;2023-01-20T04:32:59;12.57;;;7.10;;
62861;SDS011;48953;53.110;5.592;2023-01-20T04:35:25;14.85;;;7.18;;
62861;SDS011;48953;53.110;5.592;2023-01-20T04:37:50;13.48;;;6.60;;
62861;SDS011;48953;53.110;5.592;2023-01-20T04:40:16;13.05;;;7.05;;
62861;SDS011;48953;53.110;5.592;2023-01-20T04:42:43;14.55;;;7.20;;
62861;SDS011;48953;53.110;5.592;2023-01-20T04:45:09;14.23;;;7.13;;
62861;SDS011;48953;53.110;5.592;2023-01-20T04:47:39;12.00;;;6.47;;
62861;SDS011;48953;53.110;5.592;2023-01-20T04:50:05;17.25;;;7.68;;
62861;SDS011;48953;53.110;5.592;2023-01-20T04:52:31;17.08;;;7.05;;
62861;SDS011;48953;53.110;5.592;2023-01-20T04:55:02;13.30;;;7.18;;
62861;SDS011;48953;53.110;5.592;2023-01-20T04:57:28;21.58;;;8.27;;
62861;SDS011;48953;53.110;5.592;2023-01-20T04:59:54;67.28;;;11.63;;
62861;SDS011;48953;53.110;5.592;2023-01-20T05:02:20;68.80;;;13.05;;
62861;SDS011;48953;53.110;5.592;2023-01-20T05:04:46;34.15;;;10.25;;
62861;SDS011;48953;53.110;5.592;2023-01-20T05:07:12;17.20;;;8.32;;
62861;SDS011;48953;53.110;5.592;2023-01-20T05:09:38;25.95;;;8.73;;
62861;SDS011;48953;53.110;5.592;2023-01-20T05:12:04;55.40;;;11.35;;
62861;SDS011;48953;53.110;5.592;2023-01-20T05:14:30;85.75;;;14.48;;
62861;SDS011;48953;53.110;5.592;2023-01-20T05:16:56;63.22;;;11.70;;
62861;SDS011;48953;53.110;5.592;2023-01-20T05:19:22;48.25;;;10.65;;
62861;SDS011;48953;53.110;5.592;2023-01-20T05:21:48;23.40;;;9.70;;
62861;SDS011;48953;53.110;5.592;2023-01-20T05:24:14;28.75;;;11.45;;
62861;SDS011;48953;53.110;5.592;2023-01-20T05:26:40;25.42;;;10.48;;
62861;SDS011;48953;53.110;5.592;2023-01-20T05:29:06;30.83;;;11.27;;
62861;SDS011;48953;53.110;5.592;2023-01-20T05:31:39;33.40;;;12.95;;
62861;SDS011;48953;53.110;5.592;2023-01-20T05:34:07;40.53;;;14.15;;
62861;SDS011;48953;53.110;5.592;2023-01-20T05:36:33;45.70;;;14.13;;
62861;SDS011;48953;53.110;5.592;2023-01-20T05:38:59;54.65;;;16.52;;
62861;SDS011;48953;53.110;5.592;2023-01-20T05:41:25;44.75;;;14.80;;
62861;SDS011;48953;53.110;5.592;2023-01-20T05:43:52;52.25;;;16.23;;
62861;SDS011;48953;53.110;5.592;2023-01-20T05:46:18;56.25;;;16.50;;
62861;SDS011;48953;53.110;5.592;2023-01-20T05:48:44;43.00;;;16.52;;
62861;SDS011;48953;53.110;5.592;2023-01-20T05:51:10;53.30;;;18.08;;
62861;SDS011;48953;53.110;5.592;2023-01-20T05:53:36;105.57;;;22.17;;
62861;SDS011;48953;53.110;5.592;2023-01-20T05:56:03;73.47;;;19.13;;
62861;SDS011;48953;53.110;5.592;2023-01-20T05:58:29;52.00;;;17.35;;
62861;SDS011;48953;53.110;5.592;2023-01-20T06:01:02;51.80;;;17.55;;
62861;SDS011;48953;53.110;5.592;2023-01-20T06:03:28;47.45;;;17.55;;
62861;SDS011;48953;53.110;5.592;2023-01-20T06:06:01;60.13;;;18.75;;
62861;SDS011;48953;53.110;5.592;2023-01-20T06:08:27;56.97;;;18.15;;
62861;SDS011;48953;53.110;5.592;2023-01-20T06:10:53;62.15;;;19.52;;
62861;SDS011;48953;53.110;5.592;2023-01-20T06:13:19;54.40;;;18.00;;
62861;SDS011;48953;53.110;5.592;2023-01-20T06:15:54;53.08;;;19.17;;
62861;SDS011;48953;53.110;5.592;2023-01-20T06:18:21;54.22;;;18.17;;
62861;SDS011;48953;53.110;5.592;2023-01-20T06:20:47;57.25;;;19.25;;
62861;SDS011;48953;53.110;5.592;2023-01-20T06:23:13;57.97;;;18.33;;
62861;SDS011;48953;53.110;5.592;2023-01-20T06:25:39;60.70;;;19.90;;
62861;SDS011;48953;53.110;5.592;2023-01-20T06:28:06;61.75;;;19.13;;
62861;SDS011;48953;53.110;5.592;2023-01-20T06:30:32;59.40;;;19.08;;
62861;SDS011;48953;53.110;5.592;2023-01-20T06:32:58;61.83;;;19.92;;
62861;SDS011;48953;53.110;5.592;2023-01-20T06:35:24;67.70;;;20.15;;
62861;SDS011;48953;53.110;5.592;2023-01-20T06:37:50;54.17;;;19.90;;
62861;SDS011;48953;53.110;5.592;2023-01-20T06:40:16;59.30;;;19.83;;
62861;SDS011;48953;53.110;5.592;2023-01-20T06:42:42;60.58;;;20.05;;
62861;SDS011;48953;53.110;5.592;2023-01-20T06:45:08;51.63;;;18.08;;
62861;SDS011;48953;53.110;5.592;2023-01-20T06:47:35;63.70;;;21.02;;
62861;SDS011;48953;53.110;5.592;2023-01-20T06:50:01;68.55;;;20.95;;
62861;SDS011;48953;53.110;5.592;2023-01-20T06:52:26;60.78;;;20.23;;
62861;SDS011;48953;53.110;5.592;2023-01-20T06:54:52;66.70;;;21.75;;
62861;SDS011;48953;53.110;5.592;2023-01-20T06:57:18;65.47;;;22.40;;
62861;SDS011;48953;53.110;5.592;2023-01-20T06:59:45;66.53;;;21.80;;
62861;SDS011;48953;53.110;5.592;2023-01-20T07:02:11;71.85;;;22.15;;
62861;SDS011;48953;53.110;5.592;2023-01-20T07:04:37;66.85;;;23.55;;
62861;SDS011;48953;53.110;5.592;2023-01-20T07:07:03;63.90;;;21.70;;
62861;SDS011;48953;53.110;5.592;2023-01-20T07:09:29;59.03;;;20.92;;
62861;SDS011;48953;53.110;5.592;2023-01-20T07:11:55;68.13;;;23.70;;
62861;SDS011;48953;53.110;5.592;2023-01-20T07:14:21;71.82;;;23.23;;
62861;SDS011;48953;53.110;5.592;2023-01-20T07:16:47;69.13;;;23.40;;
62861;SDS011;48953;53.110;5.592;2023-01-20T07:19:13;65.53;;;21.98;;
62861;SDS011;48953;53.110;5.592;2023-01-20T07:21:39;64.18;;;22.55;;
62861;SDS011;48953;53.110;5.592;2023-01-20T07:24:05;68.45;;;22.80;;
62861;SDS011;48953;53.110;5.592;2023-01-20T07:26:31;65.13;;;22.10;;
62861;SDS011;48953;53.110;5.592;2023-01-20T07:28:57;58.13;;;20.67;;
62861;SDS011;48953;53.110;5.592;2023-01-20T07:31:25;54.83;;;19.70;;
62861;SDS011;48953;53.110;5.592;2023-01-20T07:36:23;57.80;;;22.70;;
62861;SDS011;48953;53.110;5.592;2023-01-20T07:38:50;55.03;;;21.00;;
62861;SDS011;48953;53.110;5.592;2023-01-20T07:41:16;63.60;;;21.77;;
62861;SDS011;48953;53.110;5.592;2023-01-20T07:43:50;61.70;;;21.52;;
62861;SDS011;48953;53.110;5.592;2023-01-20T07:46:16;56.28;;;20.33;;
62861;SDS011;48953;53.110;5.592;2023-01-20T07:48:42;60.95;;;21.05;;
62861;SDS011;48953;53.110;5.592;2023-01-20T07:51:09;62.15;;;21.25;;
62861;SDS011;48953;53.110;5.592;2023-01-20T07:53:45;70.22;;;22.85;;
62861;SDS011;48953;53.110;5.592;2023-01-20T07:56:33;62.03;;;22.42;;
62861;SDS011;48953;53.110;5.592;2023-01-20T07:58:58;60.80;;;21.80;;
62861;SDS011;48953;53.110;5.592;2023-01-20T08:01:25;57.80;;;20.42;;
62861;SDS011;48953;53.110;5.592;2023-01-20T08:03:51;72.93;;;24.13;;
62861;SDS011;48953;53.110;5.592;2023-01-20T08:06:18;63.78;;;22.98;;
62861;SDS011;48953;53.110;5.592;2023-01-20T08:08:49;63.50;;;21.33;;
62861;SDS011;48953;53.110;5.592;2023-01-20T08:11:16;63.55;;;22.13;;
62861;SDS011;48953;53.110;5.592;2023-01-20T08:13:42;70.72;;;23.48;;
62861;SDS011;48953;53.110;5.592;2023-01-20T08:16:17;68.80;;;24.05;;
62861;SDS011;48953;53.110;5.592;2023-01-20T08:18:52;64.10;;;21.58;;
62861;SDS011;48953;53.110;5.592;2023-01-20T08:21:28;54.15;;;19.45;;
62861;SDS011;48953;53.110;5.592;2023-01-20T08:26:39;71.43;;;22.73;;
62861;SDS011;48953;53.110;5.592;2023-01-20T08:29:06;72.57;;;23.40;;
62861;SDS011;48953;53.110;5.592;2023-01-20T08:31:33;64.47;;;22.08;;
62861;SDS011;48953;53.110;5.592;2023-01-20T08:33:59;69.65;;;23.83;;
62861;SDS011;48953;53.110;5.592;2023-01-20T08:36:27;67.57;;;22.23;;
62861;SDS011;48953;53.110;5.592;2023-01-20T08:38:54;70.97;;;23.05;;
62861;SDS011;48953;53.110;5.592;2023-01-20T08:41:21;60.75;;;20.63;;
62861;SDS011;48953;53.110;5.592;2023-01-20T08:43:48;59.75;;;21.52;;
62861;SDS011;48953;53.110;5.592;2023-01-20T08:46:14;46.28;;;16.75;;
62861;SDS011;48953;53.110;5.592;2023-01-20T08:48:41;71.80;;;22.48;;
62861;SDS011;48953;53.110;5.592;2023-01-20T08:51:08;71.63;;;23.10;;
62861;SDS011;48953;53.110;5.592;2023-01-20T08:53:36;66.60;;;22.55;;
62861;SDS011;48953;53.110;5.592;2023-01-20T08:56:02;64.93;;;23.92;;
62861;SDS011;48953;53.110;5.592;2023-01-20T08:58:28;64.35;;;21.48;;
62861;SDS011;48953;53.110;5.592;2023-01-20T09:00:54;71.15;;;23.58;;
62861;SDS011;48953;53.110;5.592;2023-01-20T09:03:21;64.72;;;21.55;;
62861;SDS011;48953;53.110;5.592;2023-01-20T09:05:47;64.93;;;21.85;;
62861;SDS011;48953;53.110;5.592;2023-01-20T09:08:14;71.68;;;22.60;;
62861;SDS011;48953;53.110;5.592;2023-01-20T09:10:41;67.72;;;21.70;;
62861;SDS011;48953;53.110;5.592;2023-01-20T09:13:07;58.40;;;21.08;;
62861;SDS011;48953;53.110;5.592;2023-01-20T09:15:33;60.03;;;21.90;;
62861;SDS011;48953;53.110;5.592;2023-01-20T09:17:59;58.38;;;19.95;;
62861;SDS011;48953;53.110;5.592;2023-01-20T09:20:25;60.55;;;21.38;;
62861;SDS011;48953;53.110;5.592;2023-01-20T09:22:53;58.13;;;21.25;;
62861;SDS011;48953;53.110;5.592;2023-01-20T09:25:19;66.30;;;21.65;;
62861;SDS011;48953;53.110;5.592;2023-01-20T09:27:45;64.22;;;20.30;;
62861;SDS011;48953;53.110;5.592;2023-01-20T09:30:11;60.80;;;21.77;;
62861;SDS011;48953;53.110;5.592;2023-01-20T09:32:37;63.25;;;20.67;;
62861;SDS011;48953;53.110;5.592;2023-01-20T09:35:03;59.80;;;19.10;;
62861;SDS011;48953;53.110;5.592;2023-01-20T09:37:29;63.67;;;21.77;;
62861;SDS011;48953;53.110;5.592;2023-01-20T09:40:15;70.88;;;21.20;;
62861;SDS011;48953;53.110;5.592;2023-01-20T09:43:10;62.40;;;21.23;;
62861;SDS011;48953;53.110;5.592;2023-01-20T09:46:09;61.85;;;21.15;;
62861;SDS011;48953;53.110;5.592;2023-01-20T09:48:41;52.60;;;18.45;;
62861;SDS011;48953;53.110;5.592;2023-01-20T09:51:35;66.50;;;21.13;;
62861;SDS011;48953;53.110;5.592;2023-01-20T09:54:22;59.72;;;19.52;;
62861;SDS011;48953;53.110;5.592;2023-01-20T09:56:50;61.55;;;20.17;;
62861;SDS011;48953;53.110;5.592;2023-01-20T09:59:21;59.35;;;20.08;;
62861;SDS011;48953;53.110;5.592;2023-01-20T10:01:49;55.47;;;19.60;;
62861;SDS011;48953;53.110;5.592;2023-01-20T10:04:24;60.22;;;20.73;;
62861;SDS011;48953;53.110;5.592;2023-01-20T10:06:54;63.58;;;20.35;;
62861;SDS011;48953;53.110;5.592;2023-01-20T10:10:05;64.45;;;21.13;;
62861;SDS011;48953;53.110;5.592;2023-01-20T10:12:13;68.15;;;21.45;;
62861;SDS011;48953;53.110;5.592;2023-01-20T10:14:42;66.63;;;22.17;;
62861;SDS011;48953;53.110;5.592;2023-01-20T10:19:38;67.85;;;21.02;;
62861;SDS011;48953;53.110;5.592;2023-01-20T10:22:17;53.22;;;17.92;;
62861;SDS011;48953;53.110;5.592;2023-01-20T10:24:51;58.85;;;19.70;;
62861;SDS011;48953;53.110;5.592;2023-01-20T10:27:20;61.92;;;19.77;;
62861;SDS011;48953;53.110;5.592;2023-01-20T10:29:48;57.45;;;19.40;;
62861;SDS011;48953;53.110;5.592;2023-01-20T10:32:35;64.93;;;20.07;;
62861;SDS011;48953;53.110;5.592;2023-01-20T10:35:06;56.88;;;18.45;;
62861;SDS011;48953;53.110;5.592;2023-01-20T10:37:33;58.67;;;20.67;;
62861;SDS011;48953;53.110;5.592;2023-01-20T10:40:14;57.75;;;21.35;;
62861;SDS011;48953;53.110;5.592;2023-01-20T10:42:43;53.33;;;18.48;;
62861;SDS011;48953;53.110;5.592;2023-01-20T10:45:31;55.78;;;17.92;;
62861;SDS011;48953;53.110;5.592;2023-01-20T10:48:05;50.95;;;17.65;;
62861;SDS011;48953;53.110;5.592;2023-01-20T10:50:37;59.05;;;19.25;;
62861;SDS011;48953;53.110;5.592;2023-01-20T11:01:27;52.40;;;18.05;;
62861;SDS011;48953;53.110;5.592;2023-01-20T11:03:53;50.80;;;18.55;;
62861;SDS011;48953;53.110;5.592;2023-01-20T11:09:28;55.00;;;19.02;;
62861;SDS011;48953;53.110;5.592;2023-01-20T11:11:56;53.90;;;19.23;;
62861;SDS011;48953;53.110;5.592;2023-01-20T11:14:22;61.25;;;20.63;;
62861;SDS011;48953;53.110;5.592;2023-01-20T11:16:49;42.95;;;15.40;;
62861;SDS011;48953;53.110;5.592;2023-01-20T11:19:16;48.42;;;16.65;;
62861;SDS011;48953;53.110;5.592;2023-01-20T11:21:42;46.83;;;17.40;;
62861;SDS011;48953;53.110;5.592;2023-01-20T11:30:28;50.80;;;18.02;;
62861;SDS011;48953;53.110;5.592;2023-01-20T11:35:39;44.30;;;16.08;;
62861;SDS011;48953;53.110;5.592;2023-01-20T11:38:25;48.35;;;17.25;;
62861;SDS011;48953;53.110;5.592;2023-01-20T11:43:58;36.45;;;13.88;;
62861;SDS011;48953;53.110;5.592;2023-01-20T11:46:26;38.65;;;15.68;;
62861;SDS011;48953;53.110;5.592;2023-01-20T11:51:50;41.08;;;16.40;;
62861;SDS011;48953;53.110;5.592;2023-01-20T11:54:18;35.08;;;14.23;;
62861;SDS011;48953;53.110;5.592;2023-01-20T11:56:45;43.13;;;16.75;;
62861;SDS011;48953;53.110;5.592;2023-01-20T11:59:28;42.65;;;16.85;;
62861;SDS011;48953;53.110;5.592;2023-01-20T12:01:56;39.95;;;15.50;;
62861;SDS011;48953;53.110;5.592;2023-01-20T12:06:52;44.58;;;16.25;;
62861;SDS011;48953;53.110;5.592;2023-01-20T12:09:22;37.75;;;14.27;;
62861;SDS011;48953;53.110;5.592;2023-01-20T12:22:31;45.28;;;16.80;;
62861;SDS011;48953;53.110;5.592;2023-01-20T12:25:02;46.88;;;18.38;;
62861;SDS011;48953;53.110;5.592;2023-01-20T12:27:32;46.55;;;16.45;;
62861;SDS011;48953;53.110;5.592;2023-01-20T12:29:59;43.70;;;16.58;;
62861;SDS011;48953;53.110;5.592;2023-01-20T12:32:26;51.67;;;17.88;;
62861;SDS011;48953;53.110;5.592;2023-01-20T12:34:53;45.90;;;17.25;;
62861;SDS011;48953;53.110;5.592;2023-01-20T12:37:26;43.50;;;15.25;;
62861;SDS011;48953;53.110;5.592;2023-01-20T12:40:07;45.47;;;16.75;;
62861;SDS011;48953;53.110;5.592;2023-01-20T12:50:42;46.78;;;17.17;;
62861;SDS011;48953;53.110;5.592;2023-01-20T12:53:19;47.63;;;16.58;;
62861;SDS011;48953;53.110;5.592;2023-01-20T12:55:55;47.92;;;18.05;;
62861;SDS011;48953;53.110;5.592;2023-01-20T13:08:45;52.22;;;19.90;;
62861;SDS011;48953;53.110;5.592;2023-01-20T13:11:42;44.17;;;17.23;;
62861;SDS011;48953;53.110;5.592;2023-01-20T13:19:13;43.13;;;16.00;;
62861;SDS011;48953;53.110;5.592;2023-01-20T13:21:40;45.33;;;17.67;;
62861;SDS011;48953;53.110;5.592;2023-01-20T13:24:11;46.13;;;16.65;;
62861;SDS011;48953;53.110;5.592;2023-01-20T13:26:42;42.67;;;15.18;;
62861;SDS011;48953;53.110;5.592;2023-01-20T13:29:17;45.92;;;16.10;;
62861;SDS011;48953;53.110;5.592;2023-01-20T13:31:45;47.47;;;19.42;;
62861;SDS011;48953;53.110;5.592;2023-01-20T13:42:00;48.75;;;16.92;;
62861;SDS011;48953;53.110;5.592;2023-01-20T13:44:33;39.85;;;15.35;;
62861;SDS011;48953;53.110;5.592;2023-01-20T13:47:46;43.60;;;16.08;;
62861;SDS011;48953;53.110;5.592;2023-01-20T13:53:05;40.65;;;15.43;;
62861;SDS011;48953;53.110;5.592;2023-01-20T13:58:50;31.98;;;12.85;;
62861;SDS011;48953;53.110;5.592;2023-01-20T14:00:58;39.57;;;13.13;;
62861;SDS011;48953;53.110;5.592;2023-01-20T14:03:25;33.20;;;13.40;;
62861;SDS011;48953;53.110;5.592;2023-01-20T14:05:56;38.42;;;14.25;;
62861;SDS011;48953;53.110;5.592;2023-01-20T14:08:23;33.22;;;11.68;;
62861;SDS011;48953;53.110;5.592;2023-01-20T14:10:50;35.53;;;13.13;;
62861;SDS011;48953;53.110;5.592;2023-01-20T14:13:20;38.47;;;15.20;;
